Time;durP1;ratioP1;P1;durP2;ratioP2;P2;SDS_P1;SDS_P2;PMS_P1;PMS_P2;Temp;Humidity;BMP_temperature;BMP_pressure;BME280_temperature;BME280_humidity;BME280_pressure;Samples;Min_cycle;Max_cycle;Signal;HPM_P1;HPM_P2
2022/05/19 00:02:09;;;;;;;3.42;1.90;;;23.00;74.80;;;23.35;53.57;101192.78;5127003;29;20424;-75
2022/05/19 00:04:42;;;;;;;3.35;2.03;;;23.00;75.10;;;23.32;53.55;101188.38;5127498;29;20673;-75
2022/05/19 00:07:16;;;;;;;3.38;2.10;;;23.00;75.10;;;23.31;53.73;101186.59;5127317;29;20493;-75
2022/05/19 00:09:49;;;;;;;2.70;1.92;;;22.90;75.20;;;23.34;53.77;101185.69;5126965;28;20048;-75
2022/05/19 00:12:23;;;;;;;4.13;1.90;;;22.90;75.40;;;23.30;53.57;101190.16;5126438;28;20053;-74
2022/05/19 00:14:56;;;;;;;3.03;1.75;;;22.90;75.50;;;23.26;53.84;101183.13;5131282;28;20062;-75
2022/05/19 00:17:28;;;;;;;2.75;1.75;;;22.90;75.50;;;23.26;53.84;101193.75;5141208;28;20050;-75
2022/05/19 00:20:00;;;;;;;3.00;1.90;;;22.90;75.80;;;23.27;53.64;101185.75;5146601;28;20499;-75
2022/05/19 00:22:34;;;;;;;3.17;1.90;;;22.90;75.70;;;23.25;53.76;101182.22;5147117;28;20051;-77
2022/05/19 00:25:06;;;;;;;2.13;1.83;;;22.90;75.80;;;23.23;53.88;101188.47;5146507;28;20051;-76
2022/05/19 00:27:38;;;;;;;3.85;2.13;;;22.90;75.90;;;23.20;53.84;101193.81;5146906;28;20066;-74
2022/05/19 00:30:12;;;;;;;2.80;1.70;;;22.90;76.00;;;23.16;53.93;101187.66;5146500;28;20058;-74
2022/05/19 00:32:44;;;;;;;3.78;2.22;;;22.80;76.10;;;23.15;53.90;101187.69;5146647;28;20050;-76
2022/05/19 00:35:16;;;;;;;3.63;2.00;;;22.80;76.30;;;23.14;53.95;101185.91;5146456;28;20062;-75
2022/05/19 00:37:50;;;;;;;2.53;1.90;;;22.80;76.50;;;23.14;54.18;101186.78;5146408;28;20051;-75
2022/05/19 00:40:24;;;;;;;2.80;2.10;;;22.70;76.50;;;23.13;53.98;101187.69;5145866;28;20489;-75
2022/05/19 00:42:56;;;;;;;3.80;2.38;;;22.80;76.70;;;23.09;54.35;101185.09;5154469;28;20415;-75
2022/05/19 00:45:37;;;;;;;4.80;2.55;;;22.70;76.80;;;23.04;54.47;101181.59;5146407;28;20046;-75
2022/05/19 00:48:19;;;;;;;3.03;1.90;;;22.70;76.90;;;22.98;54.31;101172.78;5146365;28;20061;-75
2022/05/19 00:50:56;;;;;;;3.90;2.42;;;22.70;77.10;;;22.94;54.53;101176.34;5146096;28;20058;-75
2022/05/19 00:53:36;;;;;;;2.60;2.13;;;22.60;77.30;;;22.92;54.56;101172.84;5146420;28;20050;-74
2022/05/19 00:56:15;;;;;;;2.83;1.92;;;22.60;77.50;;;22.89;54.55;101172.00;5146371;28;20059;-74
2022/05/19 00:58:53;;;;;;;2.47;1.90;;;22.60;77.60;;;22.86;54.81;101167.59;5146010;28;20059;-75
2022/05/19 01:01:25;;;;;;;3.45;2.13;;;22.60;77.80;;;22.79;54.79;101163.19;5145642;28;20058;-75
2022/05/19 01:04:03;;;;;;;2.75;2.13;;;22.50;78.00;;;22.76;54.85;101165.91;5145895;28;20424;-75
2022/05/19 01:06:37;;;;;;;2.67;1.80;;;22.50;78.10;;;22.78;55.19;101158.78;5145696;28;20051;-75
2022/05/19 01:09:14;;;;;;;3.72;2.03;;;22.50;78.40;;;22.78;55.10;101172.06;5145600;28;20053;-75
2022/05/19 01:11:51;;;;;;;3.47;1.80;;;22.50;78.50;;;22.78;55.16;101173.84;5145754;28;20058;-75
2022/05/19 01:14:24;;;;;;;5.45;2.00;;;22.50;78.60;;;22.78;54.85;101169.41;5146019;28;20511;-75
2022/05/19 01:16:56;;;;;;;3.35;2.20;;;22.40;78.50;;;22.72;55.07;101172.13;5145719;28;20054;-75
2022/05/19 01:19:36;;;;;;;2.45;2.03;;;22.40;78.80;;;22.64;55.27;101163.34;5145254;28;20481;-75
2022/05/19 01:22:17;;;;;;;4.72;2.13;;;22.30;78.90;;;22.59;55.32;101158.06;5145753;28;20065;-75
2022/05/19 01:25:03;;;;;;;3.58;2.35;;;22.30;79.20;;;22.55;55.77;101156.31;5145768;28;20403;-74
2022/05/19 01:27:38;;;;;;;3.17;2.20;;;22.30;79.30;;;22.53;55.70;101151.94;5145673;28;20054;-75
2022/05/19 01:30:12;;;;;;;3.28;1.90;;;22.30;79.60;;;22.52;55.60;101163.44;5144794;28;20043;-75
2022/05/19 01:32:44;;;;;;;3.75;2.17;;;22.20;79.60;;;22.53;55.54;101167.88;5145496;28;20061;-74
2022/05/19 01:35:16;;;;;;;4.38;2.00;;;22.20;79.70;;;22.50;55.37;101162.59;5145527;28;20061;-76
2022/05/19 01:37:49;;;;;;;4.40;2.05;;;22.20;79.70;;;22.48;55.41;101171.44;5145234;28;20051;-75
2022/05/19 01:40:37;;;;;;;3.03;2.00;;;22.20;79.80;;;22.45;55.57;101155.53;5144637;28;20047;-75
2022/05/19 01:43:23;;;;;;;2.00;1.80;;;22.10;79.90;;;22.47;55.62;101148.41;5145538;28;20051;-76
2022/05/19 01:46:14;;;;;;;3.60;1.92;;;22.10;80.10;;;22.45;55.82;101136.94;5145211;28;20047;-75
2022/05/19 01:48:52;;;;;;;3.35;2.10;;;22.20;80.30;;;22.41;55.79;101137.84;5145185;28;20050;-75
2022/05/19 01:51:32;;;;;;;3.95;2.08;;;22.10;80.50;;;22.39;55.73;101137.00;5145267;28;20043;-75
2022/05/19 01:54:10;;;;;;;3.50;1.98;;;22.10;80.50;;;22.37;55.92;101137.91;5145218;28;20051;-74
2022/05/19 01:56:50;;;;;;;3.33;2.15;;;22.10;80.80;;;22.33;55.92;101139.69;5144800;28;20057;-75
2022/05/19 01:59:30;;;;;;;3.05;2.05;;;22.00;80.90;;;22.29;56.05;101132.63;5144719;28;20051;-75
2022/05/19 02:02:11;;;;;;;4.03;2.35;;;22.00;81.10;;;22.27;55.98;101142.41;5145421;28;20061;-75
2022/05/19 02:04:50;;;;;;;2.90;1.83;;;22.00;81.20;;;22.26;55.93;101137.97;5145239;28;20047;-76
2022/05/19 02:07:23;;;;;;;2.92;2.10;;;22.00;81.30;;;22.24;56.00;101137.13;5144880;28;20062;-75
2022/05/19 02:10:01;;;;;;;3.58;2.33;;;21.90;81.30;;;22.22;56.00;101130.91;5145174;28;20117;-75
2022/05/19 02:12:34;;;;;;;3.80;2.10;;;21.90;81.40;;;22.16;56.01;101141.59;5144919;28;20047;-74
2022/05/19 02:15:12;;;;;;;2.63;2.17;;;21.90;81.40;;;22.13;56.18;101142.50;5144949;28;20055;-74
2022/05/19 02:17:46;;;;;;;3.13;2.08;;;21.90;81.70;;;22.15;56.32;101134.53;5145029;28;20127;-74
2022/05/19 02:20:22;;;;;;;2.72;2.35;;;21.80;82.00;;;22.16;56.11;101136.28;5144816;28;20400;-75
2022/05/19 02:22:55;;;;;;;5.43;2.50;;;21.80;81.90;;;22.17;56.16;101140.72;5145074;28;20057;-74
2022/05/19 02:25:32;;;;;;;2.10;1.88;;;21.80;82.00;;;22.12;55.92;101135.44;5144682;28;20057;-75
2022/05/19 02:28:09;;;;;;;3.60;2.10;;;21.80;82.00;;;22.10;56.10;101141.63;5145252;28;20493;-76
2022/05/19 02:30:43;;;;;;;5.75;2.20;;;21.80;82.10;;;22.08;56.18;101138.97;5145033;28;20047;-75
2022/05/19 02:33:17;;;;;;;4.22;2.33;;;21.80;82.30;;;22.09;56.22;101139.88;5144933;28;20106;-74
2022/05/19 02:35:49;;;;;;;3.30;2.10;;;21.80;82.50;;;22.11;56.18;101144.28;5146192;28;20416;-74
2022/05/19 02:38:23;;;;;;;2.65;2.08;;;21.80;82.70;;;22.09;56.25;101139.88;5148433;28;20054;-75
2022/05/19 02:40:55;;;;;;;2.75;2.10;;;21.80;82.70;;;22.11;56.28;101138.97;5148693;28;20047;-74
2022/05/19 02:43:27;;;;;;;4.47;2.35;;;21.80;82.90;;;22.08;56.39;101146.03;5148693;28;20051;-76
2022/05/19 02:46:01;;;;;;;2.53;2.00;;;21.70;83.00;;;22.06;56.48;101146.06;5148939;28;20054;-75
2022/05/19 02:48:33;;;;;;;3.35;1.85;;;21.70;83.20;;;22.06;56.54;101147.84;5148559;28;20050;-75
2022/05/19 02:51:06;;;;;;;2.38;2.00;;;21.70;83.40;;;22.04;56.56;101142.53;5148780;28;20396;-75
2022/05/19 02:53:37;;;;;;;2.60;2.00;;;21.70;83.60;;;22.01;56.51;101136.38;5148456;28;20050;-75
2022/05/19 02:56:10;;;;;;;2.58;2.10;;;21.70;84.30;;;22.00;56.57;101139.91;5148364;28;20058;-74
2022/05/19 02:58:42;;;;;;;4.03;2.03;;;21.60;83.80;;;21.93;56.68;101134.66;5148036;28;20054;-74
2022/05/19 03:01:15;;;;;;;2.63;2.15;;;21.60;84.10;;;21.88;56.84;101132.91;5148530;28;20058;-74
2022/05/19 03:03:48;;;;;;;2.35;1.85;;;21.60;84.30;;;21.81;57.12;101129.41;5148184;28;20047;-75
2022/05/19 03:06:20;;;;;;;3.72;2.20;;;21.50;84.40;;;21.77;56.92;101132.97;5148084;28;20480;-75
2022/05/19 03:08:52;;;;;;;3.90;2.38;;;21.50;84.60;;;21.74;57.29;101138.28;5147993;28;20062;-75
2022/05/19 03:11:24;;;;;;;2.80;2.20;;;21.50;84.80;;;21.76;57.33;101138.28;5148457;28;20158;-74
2022/05/19 03:13:56;;;;;;;3.55;2.38;;;21.50;85.00;;;21.71;57.55;101146.25;5147992;28;20055;-75
2022/05/19 03:16:29;;;;;;;4.57;3.00;;;21.40;85.20;;;21.63;57.54;101145.44;5148234;28;20404;-75
2022/05/19 03:19:02;;;;;;;2.75;2.22;;;21.40;85.40;;;21.60;57.85;101140.16;5147719;28;20054;-76
2022/05/19 03:21:34;;;;;;;2.58;2.20;;;21.30;85.80;;;21.60;57.86;101148.09;5147728;28;20059;-74
2022/05/19 03:24:07;;;;;;;3.17;2.08;;;21.30;85.90;;;21.56;57.88;101138.38;5148193;28;20508;-76
2022/05/19 03:26:39;;;;;;;3.08;2.30;;;21.30;86.10;;;21.53;58.00;101144.59;5147653;28;20050;-74
2022/05/19 03:29:11;;;;;;;3.75;2.00;;;21.30;86.30;;;21.57;58.03;101145.44;5147362;28;20059;-75
2022/05/19 03:31:44;;;;;;;3.03;2.10;;;21.30;86.70;;;21.57;57.99;101132.19;5147918;28;20054;-74
2022/05/19 03:34:17;;;;;;;2.67;2.05;;;21.30;86.70;;;21.54;57.87;101140.19;5147826;28;20046;-75
2022/05/19 03:36:49;;;;;;;3.15;2.17;;;21.20;86.80;;;21.48;58.28;101135.78;5147641;28;20113;-75
2022/05/19 03:39:22;;;;;;;2.65;2.35;;;21.20;87.10;;;21.50;58.25;101138.41;5147179;28;20055;-75
2022/05/19 03:41:54;;;;;;;3.08;2.42;;;21.20;87.30;;;21.50;58.13;101138.41;5147787;28;20400;-75
2022/05/19 03:44:26;;;;;;;3.33;2.20;;;21.20;87.30;;;21.46;58.24;101131.38;5147650;28;20416;-75
2022/05/19 03:46:59;;;;;;;3.60;2.42;;;21.20;87.40;;;21.44;58.39;101133.13;5146524;28;20485;-74
2022/05/19 03:49:32;;;;;;;4.65;2.60;;;21.20;87.80;;;21.42;58.22;101145.53;5147159;28;20057;-75
2022/05/19 03:52:06;;;;;;;5.18;2.50;;;21.20;87.70;;;21.42;58.44;101148.19;5147169;28;20047;-75
2022/05/19 03:54:38;;;;;;;3.20;2.15;;;21.10;87.90;;;21.43;58.41;101147.28;5147403;28;20092;-75
2022/05/19 03:57:12;;;;;;;2.58;2.20;;;21.10;88.10;;;21.42;58.44;101151.72;5147153;28;20057;-75
2022/05/19 03:59:44;;;;;;;3.42;1.95;;;21.10;88.30;;;21.40;58.41;101148.19;5146991;28;20058;-74
2022/05/19 04:02:18;;;;;;;3.10;2.13;;;21.10;88.40;;;21.39;58.46;101142.00;5147231;28;20050;-74
2022/05/19 04:04:50;;;;;;;5.18;2.10;;;21.10;88.50;;;21.37;58.54;101149.06;5147355;28;20055;-75
2022/05/19 04:07:22;;;;;;;3.15;2.05;;;21.10;88.60;;;21.35;58.44;101150.84;5147171;28;20053;-76
2022/05/19 04:09:54;;;;;;;2.83;2.17;;;21.10;88.80;;;21.37;58.39;101149.06;5146931;28;20047;-75
2022/05/19 04:12:26;;;;;;;3.42;2.00;;;21.10;88.90;;;21.38;58.30;101156.13;5147004;28;20046;-74
2022/05/19 04:14:58;;;;;;;2.72;1.90;;;21.10;88.90;;;21.38;58.35;101156.13;5146848;28;20051;-74
2022/05/19 04:17:33;;;;;;;2.55;1.73;;;21.10;88.90;;;21.42;58.34;101156.13;5146926;28;20059;-74
2022/05/19 04:20:08;;;;;;;2.47;2.13;;;21.10;89.00;;;21.46;58.32;101163.22;5146541;28;20440;-75
2022/05/19 04:22:41;;;;;;;2.42;2.10;;;21.10;89.10;;;21.47;58.09;101160.53;5146848;28;20412;-75
2022/05/19 04:25:13;;;;;;;3.15;2.22;;;21.10;89.00;;;21.49;58.12;101156.09;5146974;28;20411;-75
2022/05/19 04:27:45;;;;;;;3.10;2.25;;;21.20;89.10;;;21.47;58.08;101159.66;5146811;28;20053;-77
2022/05/19 04:30:17;;;;;;;3.33;2.25;;;21.10;89.00;;;21.42;57.98;101157.03;5146371;28;20480;-75
2022/05/19 04:32:50;;;;;;;3.30;2.22;;;21.10;88.90;;;21.43;58.10;101157.91;5146799;28;20488;-74
2022/05/19 04:35:23;;;;;;;3.60;2.50;;;21.10;89.00;;;21.40;58.09;101167.63;5146379;28;20507;-74
2022/05/19 04:37:57;;;;;;;3.28;2.47;;;21.10;89.70;;;21.40;58.28;101162.34;5146335;28;20055;-74
2022/05/19 04:43:07;;;;;;;3.42;2.10;;;21.20;89.30;;;21.44;58.00;101160.53;5163337;28;20054;-69
2022/05/19 04:45:39;;;;;;;3.00;2.33;;;21.20;89.30;;;21.46;57.97;101168.50;5151999;28;20100;-70
2022/05/19 04:48:13;;;;;;;4.63;2.17;;;21.20;89.40;;;21.47;58.06;101170.28;5146547;28;20050;-70
2022/05/19 04:50:45;;;;;;;3.13;2.33;;;21.20;89.30;;;21.48;57.95;101169.38;5146242;28;20061;-70
2022/05/19 04:53:17;;;;;;;3.55;2.30;;;21.20;89.40;;;21.49;57.83;101177.31;5146048;28;20415;-69
2022/05/19 04:55:50;;;;;;;4.93;2.00;;;21.20;89.40;;;21.52;57.84;101174.66;5146052;28;20058;-69
2022/05/19 04:58:23;;;;;;;4.05;2.10;;;21.20;89.40;;;21.54;57.80;101172.00;5145682;28;20058;-69
2022/05/19 05:00:55;;;;;;;3.17;2.20;;;21.20;89.40;;;21.57;57.88;101172.84;5146009;28;20047;-69
2022/05/19 05:03:28;;;;;;;4.10;2.38;;;21.20;89.50;;;21.57;57.73;101171.97;5146065;28;20133;-70
2022/05/19 05:06:00;;;;;;;2.45;1.92;;;21.20;89.40;;;21.56;57.76;101175.53;5146063;28;20158;-70
2022/05/19 05:08:32;;;;;;;3.05;2.05;;;21.30;89.60;;;21.56;57.81;101171.09;5145519;28;20042;-69
2022/05/19 05:11:04;;;;;;;5.03;2.40;;;21.20;90.00;;;21.56;57.74;101164.91;5145807;28;20043;-70
2022/05/19 05:13:36;;;;;;;3.33;2.05;;;21.20;89.50;;;21.57;57.75;101162.25;5145942;28;20142;-70
2022/05/19 05:16:08;;;;;;;3.15;2.42;;;21.30;89.60;;;21.61;57.71;101165.78;5145284;28;20051;-69
2022/05/19 05:18:42;;;;;;;2.97;2.13;;;21.30;89.50;;;21.62;57.54;101164.88;5145429;28;20061;-70
2022/05/19 05:21:14;;;;;;;2.75;2.13;;;21.30;89.40;;;21.66;57.49;101153.38;5145557;28;20076;-70
2022/05/19 05:23:46;;;;;;;2.50;1.80;;;21.30;89.60;;;21.79;57.47;101162.16;5145493;28;20057;-70
2022/05/19 05:26:18;;;;;;;2.90;2.00;;;21.40;89.60;;;21.97;57.10;101164.69;5145479;28;20503;-70
2022/05/19 05:28:50;;;;;;;3.25;2.22;;;21.50;90.00;;;22.11;56.38;101159.34;5145385;28;20054;-70
2022/05/19 05:31:22;;;;;;;2.53;1.95;;;21.70;88.60;;;22.29;56.09;101156.53;5145717;28;20047;-70
2022/05/19 05:33:55;;;;;;;3.13;1.98;;;21.80;88.30;;;22.52;55.35;101159.03;5145630;28;20073;-69
2022/05/19 05:36:27;;;;;;;3.08;2.22;;;22.00;87.90;;;22.69;55.09;101166.81;5145309;28;20050;-70
2022/05/19 05:39:00;;;;;;;4.47;2.55;;;22.10;87.20;;;22.83;53.87;101164.94;5144898;28;20125;-69
2022/05/19 05:41:32;;;;;;;2.95;2.00;;;22.30;85.90;;;22.93;53.72;101171.94;5145096;28;20053;-69
2022/05/19 05:44:04;;;;;;;4.32;2.03;;;22.40;85.80;;;23.07;53.52;101173.56;5145332;28;20050;-70
2022/05/19 05:46:36;;;;;;;3.90;1.98;;;22.50;85.50;;;23.17;53.01;101177.91;5145045;28;20046;-69
2022/05/19 05:49:10;;;;;;;3.75;2.20;;;22.60;84.70;;;23.17;52.63;101173.47;5144931;28;20141;-70
2022/05/19 05:51:42;;;;;;;3.95;2.20;;;22.70;83.90;;;23.21;52.53;101174.28;5145100;28;20062;-70
2022/05/19 05:54:14;;;;;;;3.58;2.30;;;22.70;83.60;;;23.22;52.35;101186.72;5145254;28;20051;-70
2022/05/19 05:56:46;;;;;;;3.47;1.95;;;22.70;83.20;;;23.30;52.17;101179.53;5144819;28;20492;-69
2022/05/19 05:59:18;;;;;;;7.55;2.50;;;22.80;83.20;;;23.38;52.25;101192.75;5158043;28;20500;-73
2022/05/19 06:01:50;;;;;;;5.93;2.50;;;22.90;83.20;;;23.44;52.16;101193.53;5165366;28;20053;-73
2022/05/19 06:04:23;;;;;;;2.92;2.10;;;22.90;82.80;;;23.58;52.24;101216.44;5165329;28;20046;-73
2022/05/19 06:06:55;;;;;;;4.50;2.22;;;23.00;83.20;;;23.82;52.29;101245.47;5165380;28;20472;-73
2022/05/19 06:09:28;;;;;;;3.42;2.15;;;23.10;83.40;;;24.08;51.93;101245.13;5165130;28;20061;-73
2022/05/19 06:12:00;;;;;;;2.83;2.08;;;23.40;83.50;;;24.28;50.21;101266.13;5164716;28;20053;-73
2022/05/19 06:14:32;;;;;;;2.88;2.30;;;23.60;81.40;;;24.48;50.11;101249.91;5183679;28;20050;-73
2022/05/19 06:17:04;;;;;;;3.33;2.38;;;23.70;80.90;;;24.55;49.96;101249.78;5185473;28;20052;-73
2022/05/19 06:19:38;;;;;;;4.13;2.63;;;23.80;80.70;;;24.58;50.39;101251.50;5182023;28;20046;-73
2022/05/19 06:22:11;;;;;;;2.53;2.33;;;23.90;80.90;;;24.55;51.43;101236.44;5169592;28;20402;-73
2022/05/19 06:24:43;;;;;;;2.65;2.20;;;23.90;81.90;;;24.50;52.11;101248.94;5185584;28;20049;-73
2022/05/19 06:27:14;;;;;;;2.95;2.17;;;23.90;82.90;;;24.56;52.89;101235.53;5185504;28;20050;-73
2022/05/19 06:29:46;;;;;;;3.70;2.08;;;23.90;84.00;;;24.69;51.78;101230.00;5185378;28;20403;-74
2022/05/19 06:32:18;;;;;;;5.00;2.65;;;24.00;83.40;;;24.90;50.95;101242.97;5185317;28;20050;-74
2022/05/19 06:34:52;;;;;;;4.35;2.25;;;24.10;82.50;;;25.21;50.18;101238.00;5185800;28;20056;-73
2022/05/19 06:37:24;;;;;;;3.08;2.25;;;24.30;81.50;;;25.36;48.80;101248.38;5185444;28;20049;-73
2022/05/19 06:39:56;;;;;;;2.78;2.10;;;24.50;80.00;;;25.54;48.33;101247.16;5185245;28;20056;-73
2022/05/19 06:42:28;;;;;;;3.33;2.10;;;24.60;78.90;;;25.61;47.81;101238.09;5184926;28;20056;-73
2022/05/19 06:45:00;;;;;;;3.92;2.40;;;24.70;77.70;;;25.59;47.35;101236.38;5185452;28;20046;-73
2022/05/19 06:47:32;;;;;;;4.55;2.05;;;24.80;77.20;;;25.60;47.63;101247.03;5185171;28;20046;-73
2022/05/19 06:50:09;;;;;;;3.08;2.15;;;24.90;77.10;;;25.76;47.32;101241.44;5185244;28;20045;-73
2022/05/19 06:52:50;;;;;;;4.57;2.00;;;24.90;76.90;;;25.89;46.86;101233.13;5185032;28;20273;-73
2022/05/19 06:55:24;;;;;;;4.95;2.08;;;25.10;76.40;;;26.06;46.50;101229.19;5185451;28;20072;-73
2022/05/19 06:57:56;;;;;;;3.20;1.98;;;25.20;75.90;;;26.22;45.77;101236.81;5184814;28;20132;-73
2022/05/19 07:00:30;;;;;;;2.00;1.80;;;25.40;75.10;;;26.39;45.81;101228.41;5184983;28;20053;-74
2022/05/19 07:03:02;;;;;;;3.47;1.90;;;25.50;75.00;;;26.41;45.29;101231.09;5184740;28;20060;-73
2022/05/19 07:05:36;;;;;;;3.05;2.10;;;25.60;74.00;;;26.45;44.79;101227.41;5185372;28;20050;-73
2022/05/19 07:08:09;;;;;;;3.58;2.20;;;25.60;73.30;;;26.51;45.34;101232.59;5184991;28;20060;-73
2022/05/19 07:10:41;;;;;;;2.92;2.20;;;25.70;73.70;;;26.57;45.12;101224.44;5184730;28;20050;-73
2022/05/19 07:13:13;;;;;;;3.20;2.00;;;25.70;73.30;;;26.67;44.98;101209.94;5185109;28;20403;-73
2022/05/19 07:15:45;;;;;;;3.83;1.80;;;25.80;73.30;;;26.88;44.62;101199.59;5184973;28;20454;-59
2022/05/19 07:18:17;;;;;;;3.10;1.95;;;26.00;73.00;;;26.76;44.09;101212.38;5184730;28;20065;-59
2022/05/19 07:20:50;;;;;;;2.28;1.90;;;25.90;71.90;;;26.77;44.35;101203.44;5185298;28;20053;-57
2022/05/19 07:23:25;;;;;;;2.10;1.73;;;26.00;72.00;;;26.92;44.13;101201.25;5188335;28;20050;-59
2022/05/19 07:25:57;;;;;;;3.00;2.05;;;26.10;72.00;;;27.01;44.17;101203.72;5188398;28;20054;-59
2022/05/19 07:28:29;;;;;;;3.03;1.85;;;26.10;71.90;;;26.95;43.98;101198.53;5188385;28;20072;-59
2022/05/19 07:31:02;;;;;;;4.22;1.67;;;26.10;71.40;;;26.91;44.31;101194.16;5188271;28;20050;-58
2022/05/19 07:33:37;;;;;;;3.92;2.15;;;26.10;71.70;;;26.92;44.00;101190.56;5188181;28;20045;-58
2022/05/19 07:36:10;;;;;;;2.97;2.05;;;26.10;71.50;;;26.91;43.85;101187.00;5177767;28;20046;-61
2022/05/19 07:38:42;;;;;;;3.85;2.30;;;26.10;71.00;;;27.04;43.42;101192.91;5167964;28;20385;-61
2022/05/19 07:41:14;;;;;;;2.85;1.98;;;26.10;70.70;;;27.13;43.10;101190.03;5167796;28;20418;-59
2022/05/19 07:43:46;;;;;;;3.08;2.20;;;26.20;70.30;;;27.30;42.51;101195.78;5180900;28;20497;-58
2022/05/19 07:46:18;;;;;;;3.08;1.80;;;26.30;69.70;;;27.52;42.32;101192.50;5181050;28;20050;-70
2022/05/19 07:48:50;;;;;;;3.15;2.13;;;26.50;69.50;;;27.62;42.24;101185.94;5192547;28;20065;-68
2022/05/19 07:51:25;;;;;;;3.28;1.83;;;26.60;69.40;;;27.79;42.03;101191.72;5167451;28;20050;-70
2022/05/19 07:53:57;;;;;;;3.17;2.00;;;26.70;69.10;;;27.95;41.36;101191.22;5167542;28;20492;-65
2022/05/19 07:56:29;;;;;;;2.60;1.92;;;26.80;68.40;;;28.18;40.79;101186.03;5167751;28;20492;-64
2022/05/19 07:59:01;;;;;;;2.38;1.63;;;27.00;68.10;;;28.27;40.51;101179.50;5167095;28;20065;-70
2022/05/19 08:01:34;;;;;;;2.15;1.65;;;27.10;67.70;;;28.27;40.55;101193.78;5167091;28;20073;-71
2022/05/19 08:04:07;;;;;;;2.78;1.73;;;27.10;67.30;;;28.28;40.36;101189.28;5167154;28;20050;-70
2022/05/19 08:06:42;;;;;;;2.38;1.92;;;27.10;67.00;;;28.22;40.26;101185.00;5167427;28;20050;-72
2022/05/19 08:12:05;;;;;;;2.20;1.80;;;27.10;66.50;;;28.47;40.16;101185.09;5167633;28;20585;-71
2022/05/19 08:17:27;;;;;;;3.55;1.95;;;27.40;66.70;;;28.75;39.72;101168.94;5167024;28;20061;-72
2022/05/19 08:20:00;;;;;;;2.00;1.80;;;27.40;66.10;;;28.93;39.71;101183.56;5166822;28;20046;-72
2022/05/19 08:22:33;;;;;;;2.47;1.60;;;27.60;66.30;;;29.27;38.88;101183.22;5166893;28;20046;-71
2022/05/19 08:25:07;;;;;;;3.72;2.00;;;27.70;65.90;;;29.67;38.10;101179.09;5166502;28;20137;-71
2022/05/19 08:27:39;;;;;;;4.85;2.25;;;27.90;65.10;;;30.13;36.66;101174.63;5166883;28;20046;-73
2022/05/19 08:30:13;;;;;;;2.47;1.83;;;28.20;63.90;;;31.06;35.75;101178.75;5166664;28;20124;-74
2022/05/19 08:32:45;;;;;;;;;;;28.70;63.50;;;31.65;34.46;101171.59;5167136;28;20046;-69
2022/05/19 08:35:18;;;;;;;3.28;2.17;;;29.10;61.90;;;32.11;33.87;101165.78;5166480;28;19928;-66
2022/05/19 08:37:51;;;;;;;1.98;1.70;;;29.60;61.30;;;32.60;32.83;101163.34;5166579;28;20053;-65
2022/05/19 08:40:24;;;;;;;3.97;2.05;;;30.10;60.40;;;32.63;32.46;101168.59;5166314;28;20060;-67
2022/05/19 08:42:59;;;;;;;2.40;2.00;;;30.30;59.20;;;32.79;32.34;101176.75;5166230;28;20050;-67
2022/05/19 08:45:36;;;;;;;3.13;2.00;;;30.50;58.80;;;33.02;31.76;101174.72;5191301;28;20060;-68
2022/05/19 08:48:15;;;;;;;5.38;2.00;;;30.70;58.10;;;32.70;31.84;101168.25;5205310;28;20521;-65
2022/05/19 08:50:52;;;;;;;2.22;1.70;;;30.60;57.40;;;32.23;32.47;101168.81;5195074;28;20045;-66
2022/05/19 08:53:29;;;;;;;3.15;1.90;;;30.40;57.70;;;31.91;32.89;101157.78;5166560;28;20077;-66
2022/05/19 08:56:10;;;;;;;2.03;1.75;;;30.20;57.80;;;32.13;33.19;101163.88;5166465;28;20089;-66
2022/05/19 08:58:58;;;;;;;2.08;1.60;;;30.20;58.40;;;32.17;33.10;101169.13;5171142;28;20133;-65
2022/05/19 09:01:40;;;;;;;3.80;1.77;;;30.30;58.50;;;32.07;32.96;101158.78;5185710;28;20410;-66
2022/05/19 09:04:32;;;;;;;2.15;1.80;;;30.20;58.00;;;32.16;33.14;101159.28;5193949;28;20068;-65
2022/05/19 09:10:22;;;;;;;2.45;2.00;;;30.40;58.30;;;32.48;32.85;101168.50;5204088;28;20065;-72
2022/05/19 09:13:05;;;;;;;3.35;1.73;;;30.50;57.90;;;32.08;33.21;101160.53;5201726;28;20096;-70
2022/05/19 09:15:37;;;;;;;3.28;2.10;;;30.40;57.80;;;31.90;33.58;101158.75;5192321;28;20075;-72
2022/05/19 09:18:10;;;;;;;2.38;1.80;;;30.20;58.00;;;31.78;34.02;101160.19;5195818;28;20418;-71
2022/05/19 09:20:48;;;;;;;3.50;2.20;;;30.20;58.70;;;31.35;34.85;101158.59;5186036;28;20514;-72
2022/05/19 09:23:20;;;;;;;2.60;2.10;;;29.90;59.10;;;30.90;35.93;101157.00;5186017;28;20133;-71
2022/05/19 09:26:02;;;;;;;3.83;2.20;;;29.70;59.70;;;30.54;36.05;101144.19;5186093;28;20045;-71
2022/05/19 09:28:35;;;;;;;4.53;2.20;;;29.40;59.50;;;30.34;36.16;101154.91;5186048;28;20052;-71
2022/05/19 09:31:07;;;;;;;3.15;2.40;;;29.30;59.70;;;30.18;36.61;101140.34;5185411;28;20048;-70
2022/05/19 09:33:44;;;;;;;4.78;2.13;;;29.20;60.00;;;30.03;37.04;101141.81;5192287;28;20137;-65
2022/05/19 09:36:19;;;;;;;5.00;2.30;;;29.10;60.60;;;30.02;37.88;101147.25;5185904;28;20464;-66
2022/05/19 09:39:00;;;;;;;2.90;2.03;;;29.10;61.20;;;29.88;38.04;101132.56;5185279;28;20050;-67
2022/05/19 09:41:39;;;;;;;2.95;2.00;;;29.00;61.60;;;29.88;38.05;101132.56;5185559;28;20049;-66
2022/05/19 09:44:14;;;;;;;2.67;2.13;;;29.00;61.70;;;29.95;38.65;101139.44;5184509;28;20054;-73
2022/05/19 09:46:50;;;;;;;3.58;2.58;;;29.00;62.10;;;30.14;38.15;101136.03;5185011;28;20049;-73
2022/05/19 09:49:29;;;;;;;3.40;2.20;;;29.10;61.80;;;30.26;37.42;101140.91;5193438;28;20045;-74
2022/05/19 09:52:03;;;;;;;3.63;2.22;;;29.20;61.00;;;30.12;38.08;101137.91;5185890;28;20056;-72
2022/05/19 09:54:36;;;;;;;3.17;2.10;;;29.20;61.40;;;30.09;37.89;101136.19;5186160;28;20060;-72
2022/05/19 09:57:15;;;;;;;2.40;1.98;;;29.20;61.00;;;30.10;37.76;101127.22;5185601;28;20050;-71
2022/05/19 09:59:51;;;;;;;3.33;2.13;;;29.20;61.20;;;29.94;37.75;101115.31;5185647;28;20057;-72
2022/05/19 10:02:33;;;;;;;4.25;2.40;;;29.10;60.50;;;29.99;38.05;101108.84;5185430;28;20055;-72
2022/05/19 10:05:22;;;;;;;3.88;2.13;;;29.10;61.10;;;29.94;37.58;101110.81;5186108;28;20046;-71
2022/05/19 10:07:58;;;;;;;6.03;2.58;;;29.10;61.00;;;29.64;37.88;101095.94;5185045;28;20041;-72
2022/05/19 10:10:35;;;;;;;3.53;2.10;;;28.90;60.70;;;29.53;38.68;101093.66;5198041;28;20049;-71
2022/05/19 10:13:14;;;;;;;5.57;2.70;;;28.80;61.50;;;29.40;37.98;101101.28;5191999;28;20402;-72
2022/05/19 10:15:56;;;;;;;4.45;2.50;;;28.70;61.00;;;29.34;38.29;101109.59;5185830;28;20467;-70
2022/05/19 10:18:45;;;;;;;4.55;2.13;;;28.60;60.90;;;29.26;38.39;101100.94;5193127;28;20057;-72
2022/05/19 10:21:37;;;;;;;3.55;2.30;;;28.50;61.00;;;29.13;37.83;101091.59;5184819;28;20038;-66
2022/05/19 10:24:33;;;;;;;2.70;2.10;;;28.40;60.60;;;29.10;38.68;101094.41;5191926;28;20136;-73
2022/05/19 10:33:17;;;;;;;3.25;2.08;;;28.40;62.00;;;29.19;38.79;101092.25;5185124;28;20069;-71
2022/05/19 10:36:13;;;;;;;4.95;2.40;;;28.40;61.90;;;29.08;38.98;101080.16;5185633;28;20081;-72
2022/05/19 10:39:08;;;;;;;6.93;2.30;;;28.30;62.10;;;29.03;39.76;101083.03;5185004;28;20081;-68
2022/05/19 10:41:57;;;;;;;4.45;2.28;;;28.30;62.60;;;28.94;39.56;101069.94;5288395;23;20553;-79
2022/05/19 10:45:00;;;;;;;3.97;2.00;;;28.20;62.50;;;28.80;39.97;101066.84;5201497;28;20087;-78
2022/05/19 10:47:48;;;;;;;3.03;1.90;;;28.10;62.90;;;28.81;40.02;101053.38;5210924;28;20112;-82
2022/05/19 10:50:30;;;;;;;2.30;2.10;;;28.10;63.30;;;28.91;40.10;101056.63;5212938;28;20589;-80
2022/05/19 10:53:33;;;;;;;2.80;1.92;;;28.10;63.20;;;28.89;39.69;101042.38;5227868;28;20132;-80
2022/05/19 10:56:43;;;;;;;4.78;2.50;;;28.10;63.00;;;28.81;39.63;101034.59;5231105;28;20056;-79
2022/05/19 10:59:34;;;;;;;2.72;2.25;;;28.00;62.60;;;28.85;40.09;101036.25;5235641;28;20049;-80
2022/05/19 11:02:45;;;;;;;3.70;2.30;;;28.10;63.10;;;28.87;39.97;101037.06;5235313;28;20083;-80
2022/05/19 11:05:35;;;;;;;4.40;2.25;;;28.10;63.10;;;28.93;39.55;101028.81;5236798;28;20053;-81